createdAt,value
2019-01-05T00:00:14.299Z,6.81
2019-01-05T00:00:49.696Z,6.95
2019-01-05T00:01:25.339Z,6.87
2019-01-05T00:02:00.491Z,6.87
2019-01-05T00:02:35.797Z,6.83
2019-01-05T00:03:11.135Z,6.90
2019-01-05T00:03:46.556Z,6.94
2019-01-05T00:04:21.783Z,6.87
2019-01-05T00:04:57.176Z,6.76
2019-01-05T00:05:32.635Z,6.81
2019-01-05T00:06:08.074Z,6.84
2019-01-05T00:06:43.597Z,6.71
2019-01-05T00:07:19.139Z,6.84
2019-01-05T00:07:54.470Z,6.81
2019-01-05T00:08:29.793Z,6.86
2019-01-05T00:09:05.404Z,6.86
2019-01-05T00:09:40.737Z,6.84
2019-01-05T00:10:16.084Z,6.91
2019-01-05T00:10:51.223Z,6.89
2019-01-05T00:11:26.505Z,6.87
2019-01-05T00:12:01.699Z,6.91
2019-01-05T00:12:37.101Z,6.99
2019-01-05T00:13:12.440Z,6.83
2019-01-05T00:13:47.831Z,6.87
2019-01-05T00:14:23.265Z,6.87
2019-01-05T00:14:58.750Z,6.83
2019-01-05T00:15:34.165Z,6.87
2019-01-05T00:16:09.594Z,6.80
2019-01-05T00:16:44.909Z,6.89
2019-01-05T00:17:20.249Z,6.84
2019-01-05T00:17:55.864Z,6.89
2019-01-05T00:18:31.093Z,6.84
2019-01-05T00:19:06.634Z,6.77
2019-01-05T00:19:42.356Z,6.80
2019-01-05T00:20:17.712Z,6.86
2019-01-05T00:20:53.044Z,6.87
2019-01-05T00:21:28.521Z,6.86
2019-01-05T00:22:04.023Z,6.83
2019-01-05T00:22:39.350Z,6.87
2019-01-05T00:23:14.882Z,6.84
2019-01-05T00:23:50.526Z,6.90
2019-01-05T00:24:25.831Z,6.97
2019-01-05T00:25:02.582Z,7.01
2019-01-05T00:25:37.835Z,6.97
2019-01-05T00:26:12.975Z,6.89
2019-01-05T00:26:48.577Z,6.94
2019-01-05T00:27:24.014Z,7.01
2019-01-05T00:27:59.443Z,6.94
2019-01-05T00:28:34.859Z,6.95
2019-01-05T00:29:10.311Z,6.90
2019-01-05T00:29:45.608Z,6.90
2019-01-05T00:30:21.058Z,6.94
2019-01-05T00:30:56.268Z,6.89
2019-01-05T00:31:31.694Z,6.91
2019-01-05T00:32:07.009Z,6.91
2019-01-05T00:32:42.346Z,6.90
2019-01-05T00:33:17.743Z,7.01
2019-01-05T00:33:52.974Z,6.94
2019-01-05T00:34:28.202Z,6.97
2019-01-05T00:35:03.428Z,6.99
2019-01-05T00:35:38.963Z,6.98
2019-01-05T00:36:14.276Z,6.99
2019-01-05T00:36:49.502Z,7.02
2019-01-05T00:37:24.789Z,6.94
2019-01-05T00:38:00.230Z,6.99
2019-01-05T00:38:35.333Z,6.95
2019-01-05T00:39:10.757Z,6.87
2019-01-05T00:39:46.274Z,6.91
2019-01-05T00:40:21.759Z,6.91
2019-01-05T00:40:57.086Z,6.95
2019-01-05T00:41:32.432Z,6.86
2019-01-05T00:42:07.962Z,6.83
2019-01-05T00:42:43.167Z,6.81
2019-01-05T00:43:18.607Z,6.89
2019-01-05T00:43:54.027Z,6.83
2019-01-05T00:44:29.564Z,6.95
2019-01-05T00:45:04.896Z,6.98
2019-01-05T00:45:40.221Z,6.80
2019-01-05T00:46:15.629Z,6.90
2019-01-05T00:46:51.174Z,6.84
2019-01-05T00:47:26.577Z,6.95
2019-01-05T00:48:02.202Z,6.89
2019-01-05T00:48:37.542Z,6.94
2019-01-05T00:49:13.140Z,6.94
2019-01-05T00:49:48.578Z,6.89
2019-01-05T00:50:23.802Z,6.98
2019-01-05T00:50:59.309Z,6.98
2019-01-05T00:51:34.436Z,6.87
2019-01-05T00:52:09.957Z,6.94
2019-01-05T00:52:45.171Z,6.91
2019-01-05T00:53:20.401Z,6.90
2019-01-05T00:53:55.789Z,6.98
2019-01-05T00:54:31.040Z,6.98
2019-01-05T00:55:06.682Z,6.94
2019-01-05T00:55:42.193Z,6.97
2019-01-05T00:56:17.559Z,6.95
2019-01-05T00:56:53.087Z,6.89
2019-01-05T00:57:28.328Z,6.98
2019-01-05T00:58:03.734Z,6.90
2019-01-05T00:58:38.963Z,6.90
2019-01-05T00:59:14.259Z,6.97
2019-01-05T00:59:49.785Z,7.02
2019-01-05T01:00:25.131Z,6.94
2019-01-05T01:01:00.456Z,6.95
2019-01-05T01:01:36.004Z,6.90
2019-01-05T01:02:11.281Z,6.91
2019-01-05T01:02:46.727Z,7.01
2019-01-05T01:03:22.343Z,6.97
2019-01-05T01:03:57.865Z,6.91
2019-01-05T01:04:33.179Z,6.94
2019-01-05T01:05:08.533Z,6.91
2019-01-05T01:05:43.841Z,6.86
2019-01-05T01:06:19.370Z,7.04
2019-01-05T01:06:54.790Z,6.95
2019-01-05T01:07:30.027Z,6.97
2019-01-05T01:08:05.691Z,6.90
2019-01-05T01:08:41.094Z,6.91
2019-01-05T01:09:16.220Z,7.02
2019-01-05T01:09:51.429Z,6.99
2019-01-05T01:10:26.887Z,6.98
2019-01-05T01:11:02.277Z,6.99
2019-01-05T01:11:37.714Z,6.98
2019-01-05T01:12:13.320Z,6.87
2019-01-05T01:12:48.549Z,6.99
2019-01-05T01:13:23.944Z,6.97
2019-01-05T01:13:59.470Z,7.01
2019-01-05T01:14:34.922Z,6.87
2019-01-05T01:15:10.356Z,6.98
2019-01-05T01:15:45.676Z,7.02
2019-01-05T01:16:20.699Z,7.02
2019-01-05T01:16:55.908Z,6.95
2019-01-05T01:17:31.011Z,6.95
2019-01-05T01:18:06.742Z,6.97
2019-01-05T01:18:42.078Z,6.90
2019-01-05T01:19:17.520Z,6.99
2019-01-05T01:19:53.202Z,7.04
2019-01-05T01:20:28.607Z,6.98
2019-01-05T01:21:03.724Z,6.90
2019-01-05T01:21:39.344Z,6.97
2019-01-05T01:22:14.687Z,6.89
2019-01-05T01:22:49.688Z,6.94
2019-01-05T01:23:24.815Z,6.91
2019-01-05T01:24:00.527Z,6.97
2019-01-05T01:24:35.959Z,6.86
2019-01-05T01:25:10.903Z,6.95
2019-01-05T01:25:46.342Z,6.89
2019-01-05T01:26:21.876Z,6.98
2019-01-05T01:26:57.112Z,6.98
2019-01-05T01:27:32.448Z,7.02
2019-01-05T01:28:07.984Z,7.01
2019-01-05T01:28:43.345Z,6.95
2019-01-05T01:29:18.438Z,6.98
2019-01-05T01:29:53.877Z,6.89
2019-01-05T01:30:29.335Z,7.05
2019-01-05T01:31:04.752Z,6.95
2019-01-05T01:31:39.965Z,6.89
2019-01-05T01:32:15.498Z,7.04
2019-01-05T01:32:50.608Z,6.94
2019-01-05T01:33:26.164Z,7.04
2019-01-05T01:34:01.465Z,6.91
2019-01-05T01:34:36.592Z,7.04
2019-01-05T01:35:32.191Z,7.05
2019-01-05T01:36:07.408Z,7.02
2019-01-05T01:36:43.044Z,7.01
2019-01-05T01:37:18.371Z,6.99
2019-01-05T01:37:53.819Z,6.94
2019-01-05T01:38:29.195Z,7.04
2019-01-05T01:39:04.533Z,6.99
2019-01-05T01:39:39.955Z,7.07
2019-01-05T01:40:15.291Z,7.02
2019-01-05T01:40:50.825Z,6.97
2019-01-05T01:41:26.119Z,6.99
2019-01-05T01:42:01.415Z,6.99
2019-01-05T01:42:36.620Z,6.87
2019-01-05T01:43:12.056Z,7.02
2019-01-05T01:43:47.263Z,7.02
2019-01-05T01:44:22.781Z,6.95
2019-01-05T01:44:58.128Z,7.05
2019-01-05T01:45:33.582Z,7.02
2019-01-05T01:46:09.151Z,6.97
2019-01-05T01:46:44.696Z,6.97
2019-01-05T01:47:20.266Z,7.01
2019-01-05T01:47:55.903Z,6.99
2019-01-05T01:48:31.171Z,7.13
2019-01-05T01:49:06.579Z,7.02
2019-01-05T01:49:42.003Z,7.07
2019-01-05T01:50:17.548Z,7.02
2019-01-05T01:50:52.993Z,6.98
2019-01-05T01:51:28.255Z,7.02
2019-01-05T01:52:03.440Z,6.99
2019-01-05T01:52:38.674Z,7.02
2019-01-05T01:53:13.969Z,7.02
2019-01-05T01:53:49.408Z,6.98
2019-01-05T01:54:24.700Z,7.01
2019-01-05T01:55:00.182Z,7.02
2019-01-05T01:55:35.568Z,6.98
2019-01-05T01:56:10.787Z,7.02
2019-01-05T01:56:46.300Z,7.12
2019-01-05T01:57:21.721Z,7.01
2019-01-05T01:57:56.975Z,7.05
2019-01-05T01:58:32.286Z,7.05
2019-01-05T01:59:08.008Z,7.05
2019-01-05T01:59:43.616Z,7.04
2019-01-05T02:00:19.286Z,6.97
2019-01-05T02:00:54.777Z,6.98
2019-01-05T02:01:30.199Z,6.98
2019-01-05T02:02:05.611Z,7.02
2019-01-05T02:02:41.150Z,7.04
2019-01-05T02:03:16.568Z,7.09
2019-01-05T02:03:52.085Z,7.01
2019-01-05T02:04:27.408Z,7.12
2019-01-05T02:05:02.831Z,6.95
2019-01-05T02:05:37.954Z,6.98
2019-01-05T02:06:13.374Z,7.15
2019-01-05T02:06:48.827Z,6.97
2019-01-05T02:07:24.020Z,7.08
2019-01-05T02:07:59.457Z,6.97
2019-01-05T02:08:34.582Z,7.02
2019-01-05T02:09:10.023Z,7.12
2019-01-05T02:09:45.327Z,7.08
2019-01-05T02:10:20.990Z,6.99
2019-01-05T02:10:56.104Z,7.07
2019-01-05T02:11:31.331Z,7.02
2019-01-05T02:12:07.002Z,7.01
2019-01-05T02:12:42.496Z,7.05
2019-01-05T02:13:18.237Z,7.04
2019-01-05T02:13:53.641Z,7.07
2019-01-05T02:14:29.085Z,6.99
2019-01-05T02:15:04.825Z,7.15
2019-01-05T02:15:40.084Z,7.12
2019-01-05T02:16:15.194Z,7.13
2019-01-05T02:16:50.526Z,7.05
2019-01-05T02:17:25.736Z,7.09
2019-01-05T02:18:01.285Z,7.09
2019-01-05T02:18:36.732Z,7.19
2019-01-05T02:19:12.037Z,7.13
2019-01-05T02:19:47.363Z,7.09
2019-01-05T02:20:22.913Z,7.05
2019-01-05T02:20:58.263Z,7.09
2019-01-05T02:21:33.381Z,7.04
2019-01-05T02:22:08.715Z,7.07
2019-01-05T02:22:44.018Z,7.02
2019-01-05T02:23:19.462Z,7.04
2019-01-05T02:23:54.674Z,7.05
2019-01-05T02:24:30.219Z,7.07
2019-01-05T02:25:05.585Z,7.05
2019-01-05T02:25:40.985Z,7.02
2019-01-05T02:26:16.515Z,7.17
2019-01-05T02:26:51.889Z,7.08
2019-01-05T02:27:27.234Z,7.08
2019-01-05T02:28:02.739Z,7.09
2019-01-05T02:28:38.090Z,7.15
2019-01-05T02:29:13.398Z,7.12
2019-01-05T02:29:48.825Z,7.05
2019-01-05T02:30:24.046Z,7.08
2019-01-05T02:30:59.286Z,7.05
2019-01-05T02:31:34.833Z,7.09
2019-01-05T02:32:10.254Z,7.05
2019-01-05T02:32:45.786Z,7.19
2019-01-05T02:33:21.090Z,7.17
2019-01-05T02:33:56.217Z,7.15
2019-01-05T02:34:31.534Z,7.09
2019-01-05T02:35:07.083Z,7.16
2019-01-05T02:35:42.201Z,7.15
2019-01-05T02:36:17.424Z,7.09
2019-01-05T02:36:52.649Z,7.17
2019-01-05T02:37:27.954Z,7.09
2019-01-05T02:38:03.404Z,7.13
2019-01-05T02:38:39.203Z,7.15
2019-01-05T02:39:14.532Z,7.24
2019-01-05T02:39:50.144Z,7.12
2019-01-05T02:40:25.411Z,7.13
2019-01-05T02:41:00.600Z,7.17
2019-01-05T02:41:35.830Z,7.24
2019-01-05T02:42:13.037Z,7.09
2019-01-05T02:42:48.567Z,7.15
2019-01-05T02:43:23.975Z,7.19
2019-01-05T02:43:59.308Z,7.16
2019-01-05T02:44:34.637Z,7.20
2019-01-05T02:45:10.086Z,7.12
2019-01-05T02:45:45.419Z,7.16
2019-01-05T02:46:20.634Z,7.20
2019-01-05T02:46:56.467Z,7.17
2019-01-05T02:47:31.775Z,7.13
2019-01-05T02:48:07.327Z,7.16
2019-01-05T02:48:42.641Z,7.15
2019-01-05T02:49:17.988Z,7.22
2019-01-05T02:49:53.496Z,7.19
2019-01-05T02:50:28.966Z,7.15
2019-01-05T02:51:04.351Z,7.15
2019-01-05T02:51:39.790Z,7.19
2019-01-05T02:52:15.019Z,7.16
2019-01-05T02:52:50.429Z,7.20
2019-01-05T02:53:25.756Z,7.16
2019-01-05T02:54:01.060Z,7.15
2019-01-05T02:54:36.505Z,7.13
2019-01-05T02:55:11.776Z,7.22
2019-01-05T02:55:46.985Z,7.26
2019-01-05T02:56:22.437Z,7.27
2019-01-05T02:56:57.654Z,7.22
2019-01-05T02:57:32.791Z,7.20
2019-01-05T02:58:08.033Z,7.24
2019-01-05T02:58:43.245Z,7.17
2019-01-05T02:59:18.485Z,7.15
2019-01-05T02:59:53.587Z,7.20
2019-01-05T03:00:28.959Z,7.23
2019-01-05T03:01:04.313Z,7.15
2019-01-05T03:01:39.647Z,7.20
2019-01-05T03:02:14.876Z,7.26
2019-01-05T03:02:50.422Z,7.20
2019-01-05T03:03:25.957Z,7.24
2019-01-05T03:04:01.536Z,7.20
2019-01-05T03:04:36.867Z,7.12
2019-01-05T03:05:12.419Z,7.16
2019-01-05T03:05:48.458Z,7.23
2019-01-05T03:06:23.820Z,7.19
2019-01-05T03:06:59.223Z,7.29
2019-01-05T03:07:34.552Z,7.24
2019-01-05T03:08:09.670Z,7.29
2019-01-05T03:08:44.774Z,7.24
2019-01-05T03:09:20.109Z,7.19
2019-01-05T03:09:55.499Z,7.15
2019-01-05T03:10:31.361Z,7.23
2019-01-05T03:11:06.927Z,7.23
2019-01-05T03:11:42.338Z,7.20
2019-01-05T03:12:17.573Z,7.24
2019-01-05T03:12:52.869Z,7.26
2019-01-05T03:13:28.116Z,7.29
2019-01-05T03:14:03.637Z,7.22
2019-01-05T03:14:38.842Z,7.29
2019-01-05T03:15:14.182Z,7.24
2019-01-05T03:15:49.683Z,7.31
2019-01-05T03:16:25.042Z,7.22
2019-01-05T03:17:00.443Z,7.23
2019-01-05T03:17:35.890Z,7.27
2019-01-05T03:18:11.441Z,7.37
2019-01-05T03:18:46.654Z,7.22
2019-01-05T03:19:22.225Z,7.26
2019-01-05T03:19:57.698Z,7.20
2019-01-05T03:20:33.358Z,7.22
2019-01-05T03:21:08.589Z,7.29
2019-01-05T03:21:43.931Z,7.17
2019-01-05T03:22:19.364Z,7.29
2019-01-05T03:22:54.867Z,7.23
2019-01-05T03:23:30.317Z,7.23
2019-01-05T03:24:05.540Z,7.35
2019-01-05T03:24:40.856Z,7.34
2019-01-05T03:25:16.277Z,7.29
2019-01-05T03:25:51.528Z,7.23
2019-01-05T03:26:26.755Z,7.24
2019-01-05T03:27:02.183Z,7.24
2019-01-05T03:27:37.810Z,7.32
2019-01-05T03:28:13.251Z,7.24
2019-01-05T03:28:48.568Z,7.32
2019-01-05T03:29:23.795Z,7.31
2019-01-05T03:29:59.310Z,7.22
2019-01-05T03:30:34.663Z,7.20
2019-01-05T03:31:10.093Z,7.17
2019-01-05T03:31:45.296Z,7.29
2019-01-05T03:32:20.751Z,7.29
2019-01-05T03:32:56.052Z,7.35
2019-01-05T03:33:31.584Z,7.35
2019-01-05T03:34:07.105Z,7.31
2019-01-05T03:34:42.902Z,7.35
2019-01-05T03:35:18.132Z,7.31
2019-01-05T03:35:53.536Z,7.24
2019-01-05T03:36:28.714Z,7.35
2019-01-05T03:37:04.184Z,7.27
2019-01-05T03:37:39.418Z,7.27
2019-01-05T03:38:14.856Z,7.35
2019-01-05T03:38:50.283Z,7.32
2019-01-05T03:39:25.442Z,7.35
2019-01-05T03:40:01.254Z,7.34
2019-01-05T03:40:36.701Z,7.37
2019-01-05T03:41:12.118Z,7.37
2019-01-05T03:41:47.366Z,7.41
2019-01-05T03:42:22.608Z,7.38
2019-01-05T03:42:57.861Z,7.41
2019-01-05T03:43:33.319Z,7.34
2019-01-05T03:44:08.844Z,7.35
2019-01-05T03:44:44.298Z,7.35
2019-01-05T03:45:19.729Z,7.42
2019-01-05T03:45:55.046Z,7.37
2019-01-05T03:46:30.762Z,7.35
2019-01-05T03:47:06.171Z,7.38
2019-01-05T03:47:41.696Z,7.35
2019-01-05T03:48:17.269Z,7.41
2019-01-05T03:48:52.585Z,7.41
2019-01-05T03:49:27.828Z,7.42
2019-01-05T03:50:04.250Z,7.41
2019-01-05T03:50:38.345Z,7.35
2019-01-05T03:51:13.830Z,7.40
2019-01-05T03:51:49.357Z,7.35
2019-01-05T03:52:24.880Z,7.45
2019-01-05T03:53:00.282Z,7.42
2019-01-05T03:53:35.766Z,7.44
2019-01-05T03:54:10.882Z,7.40
2019-01-05T03:54:46.200Z,7.34
2019-01-05T03:55:21.539Z,7.42
2019-01-05T03:55:56.860Z,7.42
2019-01-05T03:56:32.416Z,7.41
2019-01-05T03:57:07.532Z,7.42
2019-01-05T03:57:43.158Z,7.50
2019-01-05T03:58:18.482Z,7.44
2019-01-05T03:58:53.838Z,7.47
2019-01-05T03:59:29.497Z,7.40
2019-01-05T04:00:04.706Z,7.40
2019-01-05T04:00:40.042Z,7.55
2019-01-05T04:01:15.375Z,7.47
2019-01-05T04:01:50.712Z,7.52
2019-01-05T04:02:26.275Z,7.55
2019-01-05T04:03:01.667Z,7.50
2019-01-05T04:03:36.807Z,7.47
2019-01-05T04:04:12.033Z,7.52
2019-01-05T04:04:47.270Z,7.55
2019-01-05T04:05:22.608Z,7.56
2019-01-05T04:05:58.215Z,7.49
2019-01-05T04:06:33.567Z,7.45
2019-01-05T04:07:08.769Z,7.50
2019-01-05T04:07:43.926Z,7.55
2019-01-05T04:08:19.263Z,7.49
2019-01-05T04:08:54.576Z,7.52
2019-01-05T04:09:29.980Z,7.49
2019-01-05T04:10:05.581Z,7.49
2019-01-05T04:10:40.909Z,7.49
2019-01-05T04:11:16.244Z,7.53
2019-01-05T04:11:51.661Z,7.50
2019-01-05T04:12:27.386Z,7.62
2019-01-05T04:13:02.720Z,7.53
2019-01-05T04:13:38.051Z,7.62
2019-01-05T04:14:13.572Z,7.52
2019-01-05T04:14:48.929Z,7.59
2019-01-05T04:15:24.282Z,7.56
2019-01-05T04:15:59.729Z,7.53
2019-01-05T04:16:34.918Z,7.52
2019-01-05T04:17:09.918Z,7.50
2019-01-05T04:17:45.340Z,7.69
2019-01-05T04:18:20.681Z,7.56
2019-01-05T04:18:55.981Z,7.60
2019-01-05T04:19:31.410Z,7.66
2019-01-05T04:20:07.065Z,7.63
2019-01-05T04:20:42.498Z,7.66
2019-01-05T04:21:17.939Z,7.63
2019-01-05T04:21:53.148Z,7.63
2019-01-05T04:22:28.386Z,7.62
2019-01-05T04:23:03.699Z,7.58
2019-01-05T04:23:39.038Z,7.60
2019-01-05T04:24:14.171Z,7.66
2019-01-05T04:24:49.376Z,7.60
2019-01-05T04:25:25.034Z,7.66
2019-01-05T04:26:00.349Z,7.69
2019-01-05T04:26:35.987Z,7.59
2019-01-05T04:27:11.392Z,7.66
2019-01-05T04:27:46.617Z,7.71
2019-01-05T04:28:21.844Z,7.60
2019-01-05T04:28:57.049Z,7.71
2019-01-05T04:29:32.487Z,7.69
2019-01-05T04:30:08.082Z,7.71
2019-01-05T04:30:43.767Z,7.67
2019-01-05T04:31:18.902Z,7.72
2019-01-05T04:31:54.428Z,7.72
2019-01-05T04:32:29.892Z,7.72
2019-01-05T04:33:05.185Z,7.79
2019-01-05T04:33:40.630Z,7.74
2019-01-05T04:34:16.075Z,7.75
2019-01-05T04:34:51.199Z,7.82
2019-01-05T04:35:26.631Z,7.77
2019-01-05T04:36:02.246Z,7.74
2019-01-05T04:36:37.589Z,7.74
2019-01-05T04:37:13.124Z,7.69
2019-01-05T04:37:48.484Z,7.74
2019-01-05T04:38:24.000Z,7.82
2019-01-05T04:38:59.294Z,7.78
2019-01-05T04:39:34.707Z,7.75
2019-01-05T04:40:10.208Z,7.77
2019-01-05T04:40:45.840Z,7.79
2019-01-05T04:41:21.410Z,7.87
2019-01-05T04:41:56.622Z,7.81
2019-01-05T04:42:32.070Z,7.71
2019-01-05T04:43:07.375Z,7.85
2019-01-05T04:43:42.396Z,7.90
2019-01-05T04:44:17.964Z,7.81
2019-01-05T04:44:53.269Z,7.81
2019-01-05T04:45:29.205Z,7.89
2019-01-05T04:46:04.401Z,7.84
2019-01-05T04:46:39.750Z,7.78
2019-01-05T04:47:15.188Z,7.78
2019-01-05T04:47:50.596Z,7.89
2019-01-05T04:48:25.925Z,7.85
2019-01-05T04:49:01.424Z,7.87
2019-01-05T04:49:36.954Z,7.89
2019-01-05T04:50:12.071Z,7.84
2019-01-05T04:50:47.427Z,7.89
2019-01-05T04:51:22.766Z,7.87
2019-01-05T04:51:57.914Z,7.93
2019-01-05T04:52:33.244Z,7.89
2019-01-05T04:53:08.569Z,7.84
2019-01-05T04:53:43.904Z,7.92
2019-01-05T04:54:19.043Z,7.85
2019-01-05T04:54:54.445Z,7.84
2019-01-05T04:55:30.368Z,7.89
2019-01-05T04:56:05.878Z,7.81
2019-01-05T04:56:41.321Z,7.87
2019-01-05T04:57:16.909Z,7.84
2019-01-05T04:57:52.219Z,7.92
2019-01-05T04:58:27.446Z,7.89
2019-01-05T04:59:02.749Z,7.93
2019-01-05T04:59:38.181Z,7.87
2019-01-05T05:00:13.388Z,7.89
2019-01-05T05:00:48.621Z,7.87
2019-01-05T05:01:24.398Z,7.85
2019-01-05T05:01:59.396Z,7.89
2019-01-05T05:02:34.753Z,7.90
2019-01-05T05:03:10.252Z,7.85
2019-01-05T05:03:45.410Z,7.94
2019-01-05T05:04:20.751Z,7.94
2019-01-05T05:04:56.256Z,7.94
2019-01-05T05:05:31.677Z,7.89
2019-01-05T05:06:07.007Z,7.85
2019-01-05T05:06:42.248Z,7.85
2019-01-05T05:07:17.474Z,7.87
2019-01-05T05:07:52.839Z,7.87
2019-01-05T05:08:28.204Z,7.92
2019-01-05T05:09:03.574Z,7.85
2019-01-05T05:09:39.133Z,7.93
2019-01-05T05:10:14.652Z,7.90
2019-01-05T05:10:49.954Z,7.89
2019-01-05T05:11:25.602Z,7.92
2019-01-05T05:12:01.134Z,7.90
2019-01-05T05:12:36.485Z,7.87
2019-01-05T05:13:11.913Z,7.93
2019-01-05T05:13:47.347Z,7.90
2019-01-05T05:14:22.677Z,7.85
2019-01-05T05:14:58.074Z,7.94
2019-01-05T05:15:33.395Z,7.92
2019-01-05T05:16:08.510Z,7.96
2019-01-05T05:16:43.956Z,7.93
2019-01-05T05:17:19.183Z,8.02
2019-01-05T05:17:54.383Z,7.87
2019-01-05T05:18:29.739Z,7.92
2019-01-05T05:19:05.177Z,7.97
2019-01-05T05:19:40.612Z,7.99
2019-01-05T05:20:16.309Z,7.99
2019-01-05T05:20:51.722Z,7.99
2019-01-05T05:21:27.276Z,7.99
2019-01-05T05:22:02.687Z,7.99
2019-01-05T05:22:38.226Z,7.92
2019-01-05T05:23:13.783Z,7.89
2019-01-05T05:23:49.011Z,7.96
2019-01-05T05:24:24.448Z,7.96
2019-01-05T05:24:59.789Z,8.02
2019-01-05T05:25:35.005Z,7.96
2019-01-05T05:26:10.242Z,7.99
2019-01-05T05:26:45.591Z,8.02
2019-01-05T05:27:21.287Z,7.96
2019-01-05T05:27:56.601Z,7.99
2019-01-05T05:28:32.014Z,8.00
2019-01-05T05:29:07.446Z,7.99
2019-01-05T05:29:42.577Z,7.97
2019-01-05T05:30:18.001Z,8.00
2019-01-05T05:30:53.431Z,7.94
2019-01-05T05:31:28.660Z,7.93
2019-01-05T05:32:04.064Z,8.00
2019-01-05T05:32:39.404Z,7.93
2019-01-05T05:33:14.639Z,7.96
2019-01-05T05:33:49.891Z,7.92
2019-01-05T05:34:25.132Z,7.96
2019-01-05T05:35:00.337Z,7.94
2019-01-05T05:35:35.793Z,7.99
2019-01-05T05:36:11.277Z,7.85
2019-01-05T05:36:46.814Z,7.89
2019-01-05T05:37:22.316Z,7.97
2019-01-05T05:37:57.681Z,8.00
2019-01-05T05:38:33.025Z,7.94
2019-01-05T05:39:08.524Z,7.93
2019-01-05T05:39:43.670Z,7.94
2019-01-05T05:40:18.875Z,7.99
2019-01-05T05:40:54.206Z,8.04
2019-01-05T05:41:29.541Z,7.94
2019-01-05T05:42:04.764Z,7.93
2019-01-05T05:42:40.108Z,8.04
2019-01-05T05:43:15.530Z,8.04
2019-01-05T05:43:50.780Z,8.03
2019-01-05T05:44:26.201Z,8.00
2019-01-05T05:45:01.761Z,8.02
2019-01-05T05:45:37.159Z,8.03
2019-01-05T05:46:12.145Z,8.07
2019-01-05T05:46:47.539Z,7.99
2019-01-05T05:47:22.795Z,8.02
2019-01-05T05:47:58.542Z,7.97
2019-01-05T05:48:33.893Z,8.04
2019-01-05T05:49:09.307Z,7.94
2019-01-05T05:49:44.808Z,7.93
2019-01-05T05:50:20.328Z,8.00
2019-01-05T05:50:55.646Z,8.00
2019-01-05T05:51:31.053Z,7.99
2019-01-05T05:52:06.380Z,8.02
2019-01-05T05:52:41.702Z,8.02
2019-01-05T05:53:17.232Z,7.94
2019-01-05T05:53:52.754Z,7.99
2019-01-05T05:54:28.270Z,7.90
2019-01-05T05:55:03.924Z,8.00
2019-01-05T05:55:39.598Z,7.97
2019-01-05T05:56:14.976Z,7.96
2019-01-05T05:56:50.639Z,7.90
2019-01-05T05:57:26.065Z,7.96
2019-01-05T05:58:01.665Z,7.94
2019-01-05T05:58:37.435Z,7.93
